sensor_id;sensor_type;location;lat;lon;timestamp;pressure;altitude;pressure_sealevel;temperature;humidity
24558;BME280;12726;49.148;8.582;2023-01-25T00:01:26;102236.47;;;1.87;97.73
24558;BME280;12726;49.148;8.582;2023-01-25T00:04:11;102235.00;;;1.83;97.92
24558;BME280;12726;49.148;8.582;2023-01-25T00:06:57;102235.84;;;1.84;98.42
24558;BME280;12726;49.148;8.582;2023-01-25T00:09:42;102235.72;;;1.85;98.44
24558;BME280;12726;49.148;8.582;2023-01-25T00:12:29;102223.41;;;1.84;98.00
24558;BME280;12726;49.148;8.582;2023-01-25T00:15:14;102222.44;;;1.85;98.37
24558;BME280;12726;49.148;8.582;2023-01-25T00:17:59;102226.78;;;1.86;98.47
24558;BME280;12726;49.148;8.582;2023-01-25T00:20:45;102218.91;;;1.85;98.16
24558;BME280;12726;49.148;8.582;2023-01-25T00:23:33;102228.84;;;1.83;98.45
24558;BME280;12726;49.148;8.582;2023-01-25T00:26:19;102223.41;;;1.84;98.86
24558;BME280;12726;49.148;8.582;2023-01-25T00:29:06;102220.75;;;1.84;98.69
24558;BME280;12726;49.148;8.582;2023-01-25T00:32:02;102217.00;;;1.87;98.67
24558;BME280;12726;49.148;8.582;2023-01-25T00:34:51;102214.03;;;1.91;98.46
24558;BME280;12726;49.148;8.582;2023-01-25T00:37:38;102206.91;;;1.92;98.42
24558;BME280;12726;49.148;8.582;2023-01-25T00:40:23;102199.78;;;1.92;98.11
24558;BME280;12726;49.148;8.582;2023-01-25T00:43:09;102208.94;;;1.88;98.29
24558;BME280;12726;49.148;8.582;2023-01-25T00:46:00;102206.91;;;1.92;98.61
24558;BME280;12726;49.148;8.582;2023-01-25T00:48:46;102202.78;;;1.88;98.71
24558;BME280;12726;49.148;8.582;2023-01-25T00:51:32;102201.06;;;1.87;98.62
24558;BME280;12726;49.148;8.582;2023-01-25T00:54:18;102198.41;;;1.87;98.70
24558;BME280;12726;49.148;8.582;2023-01-25T00:57:04;102197.81;;;1.83;98.67
24558;BME280;12726;49.148;8.582;2023-01-25T00:59:50;102195.38;;;1.80;98.76
24558;BME280;12726;49.148;8.582;2023-01-25T01:02:36;102191.66;;;1.83;99.52
24558;BME280;12726;49.148;8.582;2023-01-25T01:05:22;102180.78;;;1.86;98.87
24558;BME280;12726;49.148;8.582;2023-01-25T01:08:07;102170.16;;;1.86;99.37
24558;BME280;12726;49.148;8.582;2023-01-25T01:10:57;102171.97;;;1.85;98.97
24558;BME280;12726;49.148;8.582;2023-01-25T01:13:43;102166.44;;;1.88;99.20
24558;BME280;12726;49.148;8.582;2023-01-25T01:16:29;102172.50;;;1.90;99.07
24558;BME280;12726;49.148;8.582;2023-01-25T01:19:16;102173.34;;;1.91;99.08
24558;BME280;12726;49.148;8.582;2023-01-25T01:22:01;102167.75;;;1.83;99.24
24558;BME280;12726;49.148;8.582;2023-01-25T01:24:47;102176.56;;;1.83;99.10
24558;BME280;12726;49.148;8.582;2023-01-25T01:27:32;102174.63;;;1.85;99.53
24558;BME280;12726;49.148;8.582;2023-01-25T01:30:18;102175.47;;;1.86;99.52
24558;BME280;12726;49.148;8.582;2023-01-25T01:33:03;102178.66;;;1.91;99.15
24558;BME280;12726;49.148;8.582;2023-01-25T01:35:50;102178.31;;;1.95;98.81
24558;BME280;12726;49.148;8.582;2023-01-25T01:38:35;102174.22;;;1.91;98.64
24558;BME280;12726;49.148;8.582;2023-01-25T01:41:21;102176.97;;;1.90;98.78
24558;BME280;12726;49.148;8.582;2023-01-25T01:44:15;102171.66;;;1.90;99.16
24558;BME280;12726;49.148;8.582;2023-01-25T01:47:01;102176.44;;;1.85;99.39
24558;BME280;12726;49.148;8.582;2023-01-25T01:49:50;102169.47;;;1.84;99.37
24558;BME280;12726;49.148;8.582;2023-01-25T01:52:38;102169.31;;;1.85;99.68
24558;BME280;12726;49.148;8.582;2023-01-25T01:55:23;102169.31;;;1.85;99.21
24558;BME280;12726;49.148;8.582;2023-01-25T01:58:09;102168.16;;;1.89;99.28
24558;BME280;12726;49.148;8.582;2023-01-25T02:00:54;102167.41;;;1.87;99.24
24558;BME280;12726;49.148;8.582;2023-01-25T02:03:39;102167.50;;;1.86;99.20
24558;BME280;12726;49.148;8.582;2023-01-25T02:06:35;102172.59;;;1.89;99.20
24558;BME280;12726;49.148;8.582;2023-01-25T02:09:25;102177.06;;;1.88;99.28
24558;BME280;12726;49.148;8.582;2023-01-25T02:12:12;102173.34;;;1.91;98.81
24558;BME280;12726;49.148;8.582;2023-01-25T02:14:58;102184.81;;;1.91;98.55
24558;BME280;12726;49.148;8.582;2023-01-25T02:17:44;102170.81;;;1.89;98.76
24558;BME280;12726;49.148;8.582;2023-01-25T02:20:35;102170.56;;;1.92;98.91
24558;BME280;12726;49.148;8.582;2023-01-25T02:23:24;102166.34;;;1.90;98.50
24558;BME280;12726;49.148;8.582;2023-01-25T02:26:13;102150.97;;;1.82;98.62
24558;BME280;12726;49.148;8.582;2023-01-25T02:29:02;102158.59;;;1.87;99.04
24558;BME280;12726;49.148;8.582;2023-01-25T02:31:48;102158.69;;;1.85;98.98
24558;BME280;12726;49.148;8.582;2023-01-25T02:34:35;102152.66;;;1.83;99.35
24558;BME280;12726;49.148;8.582;2023-01-25T02:37:20;102155.44;;;1.82;99.11
24558;BME280;12726;49.148;8.582;2023-01-25T02:40:06;102155.53;;;1.80;99.32
24558;BME280;12726;49.148;8.582;2023-01-25T02:42:53;102150.97;;;1.82;99.52
24558;BME280;12726;49.148;8.582;2023-01-25T02:45:38;102145.41;;;1.85;99.90
24558;BME280;12726;49.148;8.582;2023-01-25T02:48:24;102150.88;;;1.84;99.41
24558;BME280;12726;49.148;8.582;2023-01-25T02:51:09;102156.38;;;1.81;99.59
24558;BME280;12726;49.148;8.582;2023-01-25T02:53:55;102153.13;;;1.77;99.90
24558;BME280;12726;49.148;8.582;2023-01-25T02:56:41;102156.28;;;1.82;100.00
24558;BME280;12726;49.148;8.582;2023-01-25T02:59:30;102150.88;;;1.84;99.97
24558;BME280;12726;49.148;8.582;2023-01-25T03:02:16;102146.63;;;1.81;99.52
24558;BME280;12726;49.148;8.582;2023-01-25T03:05:01;102147.84;;;1.88;99.94
24558;BME280;12726;49.148;8.582;2023-01-25T03:07:46;102147.78;;;2.01;98.34
24558;BME280;12726;49.148;8.582;2023-01-25T03:10:32;102143.41;;;1.89;98.99
24558;BME280;12726;49.148;8.582;2023-01-25T03:13:17;102142.91;;;1.84;99.47
24558;BME280;12726;49.148;8.582;2023-01-25T03:16:06;102140.47;;;1.81;100.00
24558;BME280;12726;49.148;8.582;2023-01-25T03:18:52;102131.16;;;1.75;100.00
24558;BME280;12726;49.148;8.582;2023-01-25T03:21:39;102139.84;;;1.77;99.96
24558;BME280;12726;49.148;8.582;2023-01-25T03:24:24;102136.00;;;1.81;100.00
24558;BME280;12726;49.148;8.582;2023-01-25T03:27:10;102131.44;;;1.83;100.00
24558;BME280;12726;49.148;8.582;2023-01-25T03:29:57;102127.06;;;1.82;100.00
24558;BME280;12726;49.148;8.582;2023-01-25T03:32:43;102129.72;;;1.82;100.00
24558;BME280;12726;49.148;8.582;2023-01-25T03:35:29;102135.78;;;1.84;100.00
24558;BME280;12726;49.148;8.582;2023-01-25T03:38:14;102136.84;;;1.82;100.00
24558;BME280;12726;49.148;8.582;2023-01-25T03:41:00;102125.84;;;1.75;100.00
24558;BME280;12726;49.148;8.582;2023-01-25T03:43:48;102121.47;;;1.74;100.00
24558;BME280;12726;49.148;8.582;2023-01-25T03:46:33;102133.81;;;1.75;100.00
24558;BME280;12726;49.148;8.582;2023-01-25T03:49:20;102126.41;;;1.68;100.00
24558;BME280;12726;49.148;8.582;2023-01-25T03:52:05;102132.66;;;1.67;100.00
24558;BME280;12726;49.148;8.582;2023-01-25T03:54:50;102131.22;;;1.63;100.00
24558;BME280;12726;49.148;8.582;2023-01-25T03:57:35;102131.81;;;1.66;100.00
24558;BME280;12726;49.148;8.582;2023-01-25T04:00:21;102130.56;;;1.59;100.00
24558;BME280;12726;49.148;8.582;2023-01-25T04:03:06;102125.06;;;1.62;100.00
24558;BME280;12726;49.148;8.582;2023-01-25T04:05:54;102129.41;;;1.63;100.00
24558;BME280;12726;49.148;8.582;2023-01-25T04:08:40;102128.41;;;1.64;100.00
24558;BME280;12726;49.148;8.582;2023-01-25T04:11:25;102134.19;;;1.58;100.00
24558;BME280;12726;49.148;8.582;2023-01-25T04:14:11;102139.03;;;1.64;100.00
24558;BME280;12726;49.148;8.582;2023-01-25T04:16:56;102123.56;;;1.58;100.00
24558;BME280;12726;49.148;8.582;2023-01-25T04:19:41;102122.84;;;1.56;100.00
24558;BME280;12726;49.148;8.582;2023-01-25T04:22:28;102124.66;;;1.55;100.00
24558;BME280;12726;49.148;8.582;2023-01-25T04:25:13;102128.19;;;1.43;100.00
24558;BME280;12726;49.148;8.582;2023-01-25T04:27:59;102123.81;;;1.42;100.00
24558;BME280;12726;49.148;8.582;2023-01-25T04:30:44;102124.56;;;1.44;100.00
24558;BME280;12726;49.148;8.582;2023-01-25T04:33:30;102116.41;;;1.47;100.00
24558;BME280;12726;49.148;8.582;2023-01-25T04:36:15;102119.38;;;1.43;100.00
24558;BME280;12726;49.148;8.582;2023-01-25T04:39:02;102118.88;;;1.38;100.00
24558;BME280;12726;49.148;8.582;2023-01-25T04:41:47;102106.91;;;1.32;100.00
24558;BME280;12726;49.148;8.582;2023-01-25T04:44:32;102107.00;;;1.31;100.00
24558;BME280;12726;49.148;8.582;2023-01-25T04:47:21;102113.94;;;1.21;100.00
24558;BME280;12726;49.148;8.582;2023-01-25T04:50:07;102101.41;;;1.23;100.00
24558;BME280;12726;49.148;8.582;2023-01-25T04:52:53;102111.28;;;1.21;100.00
24558;BME280;12726;49.148;8.582;2023-01-25T04:55:44;102109.28;;;1.11;100.00
24558;BME280;12726;49.148;8.582;2023-01-25T04:58:29;102112.03;;;1.10;100.00
24558;BME280;12726;49.148;8.582;2023-01-25T05:01:14;102116.28;;;1.12;100.00
24558;BME280;12726;49.148;8.582;2023-01-25T05:03:59;102115.88;;;1.06;100.00
24558;BME280;12726;49.148;8.582;2023-01-25T05:06:45;102102.19;;;1.12;100.00
24558;BME280;12726;49.148;8.582;2023-01-25T05:09:30;102111.00;;;1.12;100.00
24558;BME280;12726;49.148;8.582;2023-01-25T05:12:17;102103.88;;;1.13;100.00
24558;BME280;12726;49.148;8.582;2023-01-25T05:15:03;102114.91;;;1.07;100.00
24558;BME280;12726;49.148;8.582;2023-01-25T05:17:48;102102.94;;;1.01;100.00
24558;BME280;12726;49.148;8.582;2023-01-25T05:20:34;102104.75;;;1.01;100.00
24558;BME280;12726;49.148;8.582;2023-01-25T05:23:19;102101.88;;;1.04;100.00
24558;BME280;12726;49.148;8.582;2023-01-25T05:26:04;102104.88;;;0.99;100.00
24558;BME280;12726;49.148;8.582;2023-01-25T05:29:09;102102.09;;;1.01;100.00
24558;BME280;12726;49.148;8.582;2023-01-25T05:31:55;102104.44;;;1.05;100.00
24558;BME280;12726;49.148;8.582;2023-01-25T05:34:40;102111.84;;;1.00;100.00
24558;BME280;12726;49.148;8.582;2023-01-25T05:37:26;102097.97;;;0.97;100.00
24558;BME280;12726;49.148;8.582;2023-01-25T05:40:11;102101.38;;;0.99;100.00
24558;BME280;12726;49.148;8.582;2023-01-25T05:42:58;102099.88;;;0.95;100.00
24558;BME280;12726;49.148;8.582;2023-01-25T05:45:51;102102.72;;;1.04;100.00
24558;BME280;12726;49.148;8.582;2023-01-25T05:48:36;102098.72;;;0.99;100.00
24558;BME280;12726;49.148;8.582;2023-01-25T05:51:22;102094.97;;;1.01;100.00
24558;BME280;12726;49.148;8.582;2023-01-25T05:54:11;102089.91;;;0.98;100.00
24558;BME280;12726;49.148;8.582;2023-01-25T05:56:57;102095.09;;;1.00;100.00
24558;BME280;12726;49.148;8.582;2023-01-25T05:59:42;102088.22;;;0.97;100.00
24558;BME280;12726;49.148;8.582;2023-01-25T06:02:29;102082.06;;;0.97;100.00
24558;BME280;12726;49.148;8.582;2023-01-25T06:05:15;102078.91;;;0.92;100.00
24558;BME280;12726;49.148;8.582;2023-01-25T06:08:00;102078.75;;;0.93;100.00
24558;BME280;12726;49.148;8.582;2023-01-25T06:10:46;102072.50;;;0.94;100.00
24558;BME280;12726;49.148;8.582;2023-01-25T06:13:31;102067.22;;;0.94;100.00
24558;BME280;12726;49.148;8.582;2023-01-25T06:16:17;102065.75;;;0.90;100.00
24558;BME280;12726;49.148;8.582;2023-01-25T06:19:05;102050.78;;;0.89;100.00
24558;BME280;12726;49.148;8.582;2023-01-25T06:21:50;102054.41;;;0.88;100.00
24558;BME280;12726;49.148;8.582;2023-01-25T06:24:36;102060.03;;;0.84;100.00
24558;BME280;12726;49.148;8.582;2023-01-25T06:27:21;102055.44;;;0.86;100.00
24558;BME280;12726;49.148;8.582;2023-01-25T06:30:08;102049.09;;;0.88;100.00
24558;BME280;12726;49.148;8.582;2023-01-25T06:32:53;102053.22;;;0.92;100.00
24558;BME280;12726;49.148;8.582;2023-01-25T06:35:40;102056.69;;;0.93;100.00
24558;BME280;12726;49.148;8.582;2023-01-25T06:38:26;102050.69;;;0.91;100.00
24558;BME280;12726;49.148;8.582;2023-01-25T06:41:11;102049.94;;;0.89;100.00
24558;BME280;12726;49.148;8.582;2023-01-25T06:43:56;102050.28;;;0.84;100.00
24558;BME280;12726;49.148;8.582;2023-01-25T06:46:42;102060.03;;;0.84;100.00
24558;BME280;12726;49.148;8.582;2023-01-25T06:49:27;102060.44;;;0.90;100.00
24558;BME280;12726;49.148;8.582;2023-01-25T06:52:14;102055.44;;;0.86;100.00
24558;BME280;12726;49.148;8.582;2023-01-25T06:54:59;102067.13;;;0.83;100.00
24558;BME280;12726;49.148;8.582;2023-01-25T06:57:45;102060.13;;;0.82;100.00
24558;BME280;12726;49.148;8.582;2023-01-25T07:00:30;102067.03;;;0.85;100.00
24558;BME280;12726;49.148;8.582;2023-01-25T07:03:18;102074.00;;;0.86;100.00
24558;BME280;12726;49.148;8.582;2023-01-25T07:06:05;102058.75;;;0.89;100.00
24558;BME280;12726;49.148;8.582;2023-01-25T07:08:53;102057.78;;;0.90;100.00
24558;BME280;12726;49.148;8.582;2023-01-25T07:11:38;102058.63;;;0.91;100.00
24558;BME280;12726;49.148;8.582;2023-01-25T07:14:24;102061.06;;;0.94;100.00
24558;BME280;12726;49.148;8.582;2023-01-25T07:17:12;102047.19;;;0.90;100.00
24558;BME280;12726;49.148;8.582;2023-01-25T07:19:57;102061.72;;;0.85;100.00
24558;BME280;12726;49.148;8.582;2023-01-25T07:22:42;102058.84;;;0.88;100.00
24558;BME280;12726;49.148;8.582;2023-01-25T07:25:29;102064.78;;;0.91;100.00
24558;BME280;12726;49.148;8.582;2023-01-25T07:28:15;102056.69;;;0.93;100.00
24558;BME280;12726;49.148;8.582;2023-01-25T07:31:05;102056.69;;;0.93;100.00
24558;BME280;12726;49.148;8.582;2023-01-25T07:33:52;102046.09;;;0.93;100.00
24558;BME280;12726;49.148;8.582;2023-01-25T07:36:38;102054.06;;;0.93;100.00
24558;BME280;12726;49.148;8.582;2023-01-25T07:39:23;102053.22;;;0.92;100.00
24558;BME280;12726;49.148;8.582;2023-01-25T07:42:10;102056.59;;;0.94;100.00
24558;BME280;12726;49.148;8.582;2023-01-25T07:44:55;102048.66;;;0.94;100.00
24558;BME280;12726;49.148;8.582;2023-01-25T07:47:41;102048.88;;;0.91;100.00
24558;BME280;12726;49.148;8.582;2023-01-25T07:50:26;102059.16;;;0.96;100.00
24558;BME280;12726;49.148;8.582;2023-01-25T07:53:12;102057.97;;;1.00;100.00
24558;BME280;12726;49.148;8.582;2023-01-25T07:55:57;102060.84;;;0.97;100.00
24558;BME280;12726;49.148;8.582;2023-01-25T07:58:47;102065.09;;;0.99;100.00
24558;BME280;12726;49.148;8.582;2023-01-25T08:01:32;102053.41;;;1.02;100.00
24558;BME280;12726;49.148;8.582;2023-01-25T08:04:19;102051.59;;;1.02;100.00
24558;BME280;12726;49.148;8.582;2023-01-25T08:07:04;102055.75;;;1.06;100.00
24558;BME280;12726;49.148;8.582;2023-01-25T08:09:52;102045.84;;;1.08;100.00
24558;BME280;12726;49.148;8.582;2023-01-25T08:12:37;102040.44;;;1.10;100.00
24558;BME280;12726;49.148;8.582;2023-01-25T08:15:24;102047.34;;;1.12;100.00
24558;BME280;12726;49.148;8.582;2023-01-25T08:18:09;102043.94;;;1.10;100.00
24558;BME280;12726;49.148;8.582;2023-01-25T08:20:56;102045.75;;;1.10;100.00
24558;BME280;12726;49.148;8.582;2023-01-25T08:23:42;102043.19;;;1.08;100.00
24558;BME280;12726;49.148;8.582;2023-01-25T08:26:27;102044.88;;;1.09;100.00
24558;BME280;12726;49.148;8.582;2023-01-25T08:29:12;102044.16;;;1.07;100.00
24558;BME280;12726;49.148;8.582;2023-01-25T08:31:59;102043.09;;;1.10;100.00
24558;BME280;12726;49.148;8.582;2023-01-25T08:34:47;102050.00;;;1.12;100.00
24558;BME280;12726;49.148;8.582;2023-01-25T08:37:32;102046.25;;;1.15;100.00
24558;BME280;12726;49.148;8.582;2023-01-25T08:40:17;102040.84;;;1.16;100.00
24558;BME280;12726;49.148;8.582;2023-01-25T08:43:03;102043.28;;;1.20;100.00
24558;BME280;12726;49.148;8.582;2023-01-25T08:45:55;102037.63;;;1.24;100.00
24558;BME280;12726;49.148;8.582;2023-01-25T08:48:42;102027.50;;;1.29;100.00
24558;BME280;12726;49.148;8.582;2023-01-25T08:51:27;102036.22;;;1.31;100.00
24558;BME280;12726;49.148;8.582;2023-01-25T08:54:14;102018.38;;;1.33;100.00
24558;BME280;12726;49.148;8.582;2023-01-25T08:57:00;102024.94;;;1.40;100.00
24558;BME280;12726;49.148;8.582;2023-01-25T08:59:45;102021.53;;;1.38;100.00
24558;BME280;12726;49.148;8.582;2023-01-25T09:02:31;102014.41;;;1.39;100.00
24558;BME280;12726;49.148;8.582;2023-01-25T09:05:18;102026.09;;;1.36;100.00
24558;BME280;12726;49.148;8.582;2023-01-25T09:08:07;102018.88;;;1.38;100.00
24558;BME280;12726;49.148;8.582;2023-01-25T09:10:52;102020.78;;;1.36;100.00
24558;BME280;12726;49.148;8.582;2023-01-25T09:13:37;102014.31;;;1.40;100.00
24558;BME280;12726;49.148;8.582;2023-01-25T09:16:26;102020.47;;;1.41;100.00
24558;BME280;12726;49.148;8.582;2023-01-25T09:19:12;102017.81;;;1.41;100.00
24558;BME280;12726;49.148;8.582;2023-01-25T09:21:59;102015.88;;;1.43;100.00
24558;BME280;12726;49.148;8.582;2023-01-25T09:24:45;102010.25;;;1.47;100.00
24558;BME280;12726;49.148;8.582;2023-01-25T09:27:35;102009.28;;;1.48;100.00
24558;BME280;12726;49.148;8.582;2023-01-25T09:30:20;102012.06;;;1.58;100.00
24558;BME280;12726;49.148;8.582;2023-01-25T09:33:05;102014.13;;;1.54;100.00
24558;BME280;12726;49.148;8.582;2023-01-25T09:35:51;102007.88;;;1.55;100.00
24558;BME280;12726;49.148;8.582;2023-01-25T09:38:38;102006.06;;;1.56;100.00
24558;BME280;12726;49.148;8.582;2023-01-25T09:41:37;101997.84;;;1.59;100.00
24558;BME280;12726;49.148;8.582;2023-01-25T09:44:36;102012.81;;;1.60;100.00
24558;BME280;12726;49.148;8.582;2023-01-25T09:47:28;102014.25;;;1.64;100.00
24558;BME280;12726;49.148;8.582;2023-01-25T09:50:27;102011.50;;;1.66;99.26
24558;BME280;12726;49.148;8.582;2023-01-25T09:53:22;102013.94;;;1.69;99.00
24558;BME280;12726;49.148;8.582;2023-01-25T09:56:12;102004.28;;;1.79;97.72
24558;BME280;12726;49.148;8.582;2023-01-25T09:59:03;102005.72;;;1.72;97.96
24558;BME280;12726;49.148;8.582;2023-01-25T10:01:55;101998.59;;;1.72;98.11
24558;BME280;12726;49.148;8.582;2023-01-25T10:04:43;102004.88;;;1.71;98.48
24558;BME280;12726;49.148;8.582;2023-01-25T10:07:44;102003.06;;;1.72;98.41
24558;BME280;12726;49.148;8.582;2023-01-25T10:10:36;101997.28;;;1.78;97.70
24558;BME280;12726;49.148;8.582;2023-01-25T10:13:24;101995.25;;;1.81;97.74
24558;BME280;12726;49.148;8.582;2023-01-25T10:16:19;101996.00;;;1.83;97.34
24558;BME280;12726;49.148;8.582;2023-01-25T10:19:11;101993.56;;;1.80;97.25
24558;BME280;12726;49.148;8.582;2023-01-25T10:22:01;101987.41;;;1.80;97.58
24558;BME280;12726;49.148;8.582;2023-01-25T10:25:05;101989.09;;;1.81;96.58
24558;BME280;12726;49.148;8.582;2023-01-25T10:28:07;101992.13;;;1.76;96.30
24558;BME280;12726;49.148;8.582;2023-01-25T10:31:03;101982.56;;;1.74;96.92
24558;BME280;12726;49.148;8.582;2023-01-25T10:33:50;101979.06;;;1.73;96.70
24558;BME280;12726;49.148;8.582;2023-01-25T10:36:38;101980.13;;;1.71;96.79
24558;BME280;12726;49.148;8.582;2023-01-25T10:39:23;101976.41;;;1.73;96.66
24558;BME280;12726;49.148;8.582;2023-01-25T10:42:11;101974.50;;;1.75;96.70
24558;BME280;12726;49.148;8.582;2023-01-25T10:44:59;101961.97;;;1.77;97.08
24558;BME280;12726;49.148;8.582;2023-01-25T10:47:47;101970.50;;;1.81;96.71
24558;BME280;12726;49.148;8.582;2023-01-25T10:50:46;101967.00;;;1.80;97.15
24558;BME280;12726;49.148;8.582;2023-01-25T10:53:32;101964.97;;;1.84;97.07
24558;BME280;12726;49.148;8.582;2023-01-25T10:56:22;101955.06;;;1.86;96.44
24558;BME280;12726;49.148;8.582;2023-01-25T10:59:16;101945.78;;;1.80;96.42
24558;BME280;12726;49.148;8.582;2023-01-25T11:02:24;101956.16;;;1.94;95.54
24558;BME280;12726;49.148;8.582;2023-01-25T11:05:27;101943.38;;;2.00;94.76
24558;BME280;12726;49.148;8.582;2023-01-25T11:08:22;101941.09;;;1.95;94.49
24558;BME280;12726;49.148;8.582;2023-01-25T11:11:25;101936.38;;;1.87;95.83
24558;BME280;12726;49.148;8.582;2023-01-25T11:14:16;101934.78;;;1.85;96.07
24558;BME280;12726;49.148;8.582;2023-01-25T11:17:04;101920.31;;;1.89;95.33
24558;BME280;12726;49.148;8.582;2023-01-25T11:20:05;101922.50;;;1.84;95.24
24558;BME280;12726;49.148;8.582;2023-01-25T11:22:54;101924.41;;;1.82;95.65
24558;BME280;12726;49.148;8.582;2023-01-25T11:25:40;101914.63;;;1.82;95.74
24558;BME280;12726;49.148;8.582;2023-01-25T11:28:25;101911.72;;;1.85;95.70
24558;BME280;12726;49.148;8.582;2023-01-25T11:31:12;101910.66;;;1.88;96.31
24558;BME280;12726;49.148;8.582;2023-01-25T11:33:58;101903.66;;;1.87;95.75
24558;BME280;12726;49.148;8.582;2023-01-25T11:37:14;101888.34;;;1.90;95.90
24558;BME280;12726;49.148;8.582;2023-01-25T11:40:13;101891.69;;;1.92;95.34
24558;BME280;12726;49.148;8.582;2023-01-25T11:43:10;101889.78;;;1.94;94.81
24558;BME280;12726;49.148;8.582;2023-01-25T11:46:15;101878.91;;;1.86;93.60
24558;BME280;12726;49.148;8.582;2023-01-25T11:49:20;101869.75;;;1.90;93.41
24558;BME280;12726;49.148;8.582;2023-01-25T11:52:22;101867.09;;;1.90;93.43
24558;BME280;12726;49.148;8.582;2023-01-25T11:55:20;101859.81;;;1.92;93.75
24558;BME280;12726;49.148;8.582;2023-01-25T12:01:29;101822.06;;;1.89;94.24
24558;BME280;12726;49.148;8.582;2023-01-25T12:04:45;101832.31;;;1.93;94.09
24558;BME280;12726;49.148;8.582;2023-01-25T12:07:42;101832.19;;;1.95;94.34
24558;BME280;12726;49.148;8.582;2023-01-25T12:10:39;101814.91;;;2.01;94.81
24558;BME280;12726;49.148;8.582;2023-01-25T12:13:35;101827.13;;;2.03;93.77
24558;BME280;12726;49.148;8.582;2023-01-25T12:16:42;101816.00;;;2.09;93.57
24558;BME280;12726;49.148;8.582;2023-01-25T12:19:53;101816.63;;;2.02;93.41
24558;BME280;12726;49.148;8.582;2023-01-25T12:22:56;101794.91;;;1.96;93.90
24558;BME280;12726;49.148;8.582;2023-01-25T12:25:55;101786.94;;;1.96;94.48
24558;BME280;12726;49.148;8.582;2023-01-25T12:28:49;101787.03;;;1.95;94.46
24558;BME280;12726;49.148;8.582;2023-01-25T12:31:41;101771.50;;;1.90;94.98
24558;BME280;12726;49.148;8.582;2023-01-25T12:34:32;101773.66;;;1.96;95.03
24558;BME280;12726;49.148;8.582;2023-01-25T12:37:25;101762.31;;;1.94;94.48
24558;BME280;12726;49.148;8.582;2023-01-25T12:40:14;101759.66;;;1.94;94.62
24558;BME280;12726;49.148;8.582;2023-01-25T12:43:04;101758.91;;;1.92;94.92
24558;BME280;12726;49.148;8.582;2023-01-25T12:45:54;101756.03;;;1.95;94.82
24558;BME280;12726;49.148;8.582;2023-01-25T12:48:45;101750.84;;;1.94;94.84
24558;BME280;12726;49.148;8.582;2023-01-25T12:51:36;101756.41;;;1.91;94.75
24558;BME280;12726;49.148;8.582;2023-01-25T12:54:27;101750.38;;;1.89;93.96
24558;BME280;12726;49.148;8.582;2023-01-25T12:57:19;101744.31;;;1.87;94.18
24558;BME280;12726;49.148;8.582;2023-01-25T13:00:16;101733.81;;;1.85;94.42
24558;BME280;12726;49.148;8.582;2023-01-25T13:03:18;101726.97;;;1.83;94.65
24558;BME280;12726;49.148;8.582;2023-01-25T13:06:13;101724.31;;;1.83;94.61
24558;BME280;12726;49.148;8.582;2023-01-25T13:09:08;101723.19;;;1.85;94.77
24558;BME280;12726;49.148;8.582;2023-01-25T13:11:57;101712.34;;;1.88;93.99
24558;BME280;12726;49.148;8.582;2023-01-25T13:14:46;101721.38;;;1.97;92.96
24558;BME280;12726;49.148;8.582;2023-01-25T13:17:33;101708.72;;;1.89;92.75
24558;BME280;12726;49.148;8.582;2023-01-25T13:23:33;101705.78;;;1.92;93.20
24558;BME280;12726;49.148;8.582;2023-01-25T13:26:45;101699.78;;;1.90;92.53
24558;BME280;12726;49.148;8.582;2023-01-25T13:29:56;101691.09;;;1.88;92.95
24558;BME280;12726;49.148;8.582;2023-01-25T13:33:04;101681.91;;;1.92;92.94
24558;BME280;12726;49.148;8.582;2023-01-25T13:35:51;101695.31;;;1.91;92.61
24558;BME280;12726;49.148;8.582;2023-01-25T13:38:36;101688.31;;;1.90;93.60
24558;BME280;12726;49.148;8.582;2023-01-25T13:41:22;101691.22;;;1.87;93.68
24558;BME280;12726;49.148;8.582;2023-01-25T13:44:16;101694.13;;;1.84;94.44
24558;BME280;12726;49.148;8.582;2023-01-25T13:47:06;101685.31;;;1.83;94.64
24558;BME280;12726;49.148;8.582;2023-01-25T13:50:00;101677.69;;;1.90;94.30
24558;BME280;12726;49.148;8.582;2023-01-25T13:52:56;101681.72;;;1.84;94.23
24558;BME280;12726;49.148;8.582;2023-01-25T13:55:43;101679.63;;;1.88;94.55
24558;BME280;12726;49.148;8.582;2023-01-25T13:58:31;101679.97;;;1.94;93.51
24558;BME280;12726;49.148;8.582;2023-01-25T14:01:18;101673.75;;;1.84;94.11
24558;BME280;12726;49.148;8.582;2023-01-25T14:04:10;101683.75;;;1.81;94.51
24558;BME280;12726;49.148;8.582;2023-01-25T14:06:59;101680.97;;;1.82;94.45
24558;BME280;12726;49.148;8.582;2023-01-25T14:09:52;101672.41;;;1.79;94.52
24558;BME280;12726;49.148;8.582;2023-01-25T14:12:40;101669.50;;;1.82;94.30
24558;BME280;12726;49.148;8.582;2023-01-25T14:15:27;101655.78;;;1.77;94.22
24558;BME280;12726;49.148;8.582;2023-01-25T14:18:15;101660.59;;;1.72;94.59
24558;BME280;12726;49.148;8.582;2023-01-25T14:21:10;101657.59;;;1.76;94.71
24558;BME280;12726;49.148;8.582;2023-01-25T14:24:09;101644.31;;;1.76;94.74
24558;BME280;12726;49.148;8.582;2023-01-25T14:26:54;101638.50;;;1.71;94.90
24558;BME280;12726;49.148;8.582;2023-01-25T14:29:40;101639.97;;;1.75;94.74
24558;BME280;12726;49.148;8.582;2023-01-25T14:32:31;101628.75;;;1.72;94.69
24558;BME280;12726;49.148;8.582;2023-01-25T14:35:41;101629.13;;;1.67;94.40
24558;BME280;12726;49.148;8.582;2023-01-25T14:38:28;101624.44;;;1.60;94.07
24558;BME280;12726;49.148;8.582;2023-01-25T14:41:18;101627.19;;;1.69;94.46
24558;BME280;12726;49.148;8.582;2023-01-25T14:44:06;101626.72;;;1.64;93.81
24558;BME280;12726;49.148;8.582;2023-01-25T14:47:19;101620.81;;;1.61;93.09
24558;BME280;12726;49.148;8.582;2023-01-25T14:50:28;101618.63;;;1.66;92.43
24558;BME280;12726;49.148;8.582;2023-01-25T14:53:16;101618.00;;;1.73;92.17
24558;BME280;12726;49.148;8.582;2023-01-25T14:56:04;101605.97;;;1.58;92.33